Main page
METAR-TAF:

METAR-TAF

Airports :

Jersey Airport

Jersey,

latitude: 49-13N, longitude: 002-12W, elevation: 84 m

Current weather observation

The report was made 15 minutes ago, at 05:20 UTC
Wind 5 kt from the West/Southwest
Temperature 16°C
Humidity 94%
Pressure 1018 hPa
Visibility 10 km or more
Few clouds at a height of 2800 ft
fog in vicinity

METAR: EGJJ 170520Z 25005KT 9999 VCFG FEW028 16/15 Q1018

Time: 06:35 (05:35 UTC)

Forecast

The report was made 3 hours and 36 minutes ago, at 01:59 UTC
Forecast valid from 17 at 03 UTC to 17 at 12 UTC
Wind 6 kt from the West
Visibility 10 km or more
Few clouds at a height of 1800 ft

TAF: EGJJ 170159Z 1703/1712 26006KT 9999 FEW018

Weather observations and forecasts of more than 4000 airports (METAR and TAF reports).

The available stations are represented by yellow and red dots on the map.

Hover mouse over dot to see the name of the station.

Then click to see weather observations and forecasts.

To change the map : click on the green buttons with a black cross to zoom in, on the green button with a dash to zoom out, or on the green arrows for adjacent maps.


METAR-TAF: